createdAt,value
2019-05-01T00:01:20.232Z,10.10
2019-05-01T00:04:11.960Z,10.63
2019-05-01T00:06:48.050Z,10.63
2019-05-01T00:09:17.695Z,10.50
2019-05-01T00:11:47.414Z,10.97
2019-05-01T00:14:17.004Z,11.30
2019-05-01T00:16:46.811Z,11.60
2019-05-01T00:19:16.375Z,12.40
2019-05-01T00:21:45.904Z,13.00
2019-05-01T00:24:15.440Z,13.87
2019-05-01T00:26:45.111Z,13.60
2019-05-01T00:29:14.844Z,12.83
2019-05-01T00:31:44.444Z,12.63
2019-05-01T00:34:14.008Z,13.13
2019-05-01T00:36:43.575Z,12.57
2019-05-01T00:39:14.784Z,12.47
2019-05-01T00:41:44.416Z,12.57
2019-05-01T00:44:14.048Z,12.23
2019-05-01T00:46:43.597Z,12.13
2019-05-01T00:49:13.188Z,12.40
2019-05-01T00:51:42.767Z,12.00
2019-05-01T00:54:12.333Z,12.23
2019-05-01T00:56:57.802Z,12.77
2019-05-01T00:59:58.922Z,12.93
2019-05-01T01:02:35.959Z,12.10
2019-05-01T01:05:06.326Z,12.97
2019-05-01T01:07:36.036Z,12.90
2019-05-01T01:10:06.646Z,12.90
2019-05-01T01:12:36.210Z,11.97
2019-05-01T01:15:06.567Z,13.07
2019-05-01T01:17:37.100Z,13.30
2019-05-01T01:20:07.333Z,14.17
2019-05-01T01:22:36.936Z,13.10
2019-05-01T01:25:07.613Z,13.93
2019-05-01T01:27:37.168Z,12.97
2019-05-01T01:30:07.661Z,14.40
2019-05-01T01:32:37.304Z,13.90
2019-05-01T01:35:06.915Z,13.53
2019-05-01T01:37:36.461Z,13.63
2019-05-01T01:40:06.931Z,13.40
2019-05-01T01:42:37.333Z,14.17
2019-05-01T01:45:17.084Z,14.20
2019-05-01T01:48:04.496Z,13.80
2019-05-01T01:50:34.284Z,14.60
2019-05-01T01:53:04.173Z,14.90
2019-05-01T01:55:33.896Z,13.50
2019-05-01T01:58:03.656Z,14.40
2019-05-01T02:00:44.672Z,13.53
2019-05-01T02:03:14.374Z,13.83
2019-05-01T02:05:44.388Z,12.87
2019-05-01T02:08:14.053Z,13.50
2019-05-01T02:10:43.849Z,13.77
2019-05-01T02:13:13.498Z,12.87
2019-05-01T02:15:43.202Z,13.83
2019-05-01T02:18:12.863Z,13.23
2019-05-01T02:20:42.404Z,14.80
2019-05-01T02:23:11.993Z,15.33
2019-05-01T02:25:43.481Z,15.43
2019-05-01T02:28:28.682Z,13.90
2019-05-01T02:31:28.078Z,14.07
2019-05-01T02:33:55.933Z,15.50
2019-05-01T02:36:27.195Z,15.03
2019-05-01T02:38:57.876Z,14.63
2019-05-01T02:41:31.406Z,14.37
2019-05-01T02:44:07.852Z,15.73
2019-05-01T02:46:39.638Z,15.90
2019-05-01T02:49:13.235Z,16.13
2019-05-01T02:51:43.845Z,16.77
2019-05-01T02:54:16.482Z,15.70
2019-05-01T02:57:15.460Z,15.67
2019-05-01T02:59:47.888Z,16.27
2019-05-01T03:02:18.920Z,17.90
2019-05-01T03:04:48.866Z,18.40
2019-05-01T03:07:19.045Z,19.30
2019-05-01T03:09:48.784Z,19.87
2019-05-01T03:12:21.053Z,19.93
2019-05-01T03:14:53.940Z,20.53
2019-05-01T03:17:51.897Z,20.30
2019-05-01T03:20:31.890Z,21.07
2019-05-01T03:23:18.673Z,19.93
2019-05-01T03:25:48.839Z,20.10
2019-05-01T03:28:18.509Z,21.50
2019-05-01T03:30:48.726Z,22.30
2019-05-01T03:33:18.577Z,22.30
2019-05-01T03:35:48.722Z,21.57
2019-05-01T03:38:19.442Z,23.33
2019-05-01T03:40:49.614Z,22.73
2019-05-01T03:43:23.374Z,22.93
2019-05-01T03:45:53.979Z,24.83
2019-05-01T03:48:23.798Z,23.13
2019-05-01T03:50:53.830Z,25.80
2019-05-01T03:53:23.692Z,22.77
2019-05-01T03:55:53.388Z,24.03
2019-05-01T03:58:23.573Z,26.20
2019-05-01T04:01:08.748Z,27.63
2019-05-01T04:03:44.913Z,24.73
2019-05-01T04:06:14.709Z,25.57
2019-05-01T04:08:44.680Z,27.27
2019-05-01T04:11:14.401Z,28.07
2019-05-01T04:13:44.344Z,24.20
2019-05-01T04:16:14.140Z,25.77
2019-05-01T04:18:43.855Z,26.03
2019-05-01T04:21:13.509Z,25.40
2019-05-01T04:23:44.200Z,25.17
2019-05-01T04:26:14.371Z,26.70
2019-05-01T04:29:05.864Z,25.03
2019-05-01T04:32:07.046Z,27.47
2019-05-01T04:34:46.909Z,25.83
2019-05-01T04:37:17.525Z,25.43
2019-05-01T04:39:47.650Z,23.80
2019-05-01T04:42:17.401Z,28.60
2019-05-01T04:44:47.296Z,27.43
2019-05-01T04:47:17.611Z,26.03
2019-05-01T04:49:47.305Z,27.93
2019-05-01T04:52:17.045Z,27.87
2019-05-01T04:54:46.688Z,26.57
2019-05-01T04:57:16.390Z,25.73
2019-05-01T04:59:45.950Z,25.63
2019-05-01T05:02:20.272Z,25.80
2019-05-01T05:04:50.090Z,26.77
2019-05-01T05:07:20.043Z,25.80
2019-05-01T05:09:49.847Z,26.23
2019-05-01T05:12:35.045Z,26.83
2019-05-01T05:15:19.354Z,27.03
2019-05-01T05:17:48.922Z,25.37
2019-05-01T05:20:18.578Z,27.40
2019-05-01T05:22:48.580Z,27.50
2019-05-01T05:25:18.242Z,26.87
2019-05-01T05:27:49.488Z,27.53
2019-05-01T05:30:19.695Z,25.67
2019-05-01T05:32:52.437Z,26.53
2019-05-01T05:35:24.345Z,24.90
2019-05-01T05:38:08.833Z,26.00
2019-05-01T05:40:39.497Z,27.27
2019-05-01T05:43:09.440Z,24.90
2019-05-01T05:45:39.809Z,24.23
2019-05-01T05:48:09.736Z,24.93
2019-05-01T05:50:48.630Z,23.43
2019-05-01T05:53:22.365Z,23.40
2019-05-01T05:55:54.998Z,24.70
2019-05-01T05:58:33.255Z,27.03
2019-05-01T06:01:32.332Z,26.17
2019-05-01T06:04:31.810Z,25.87
2019-05-01T06:07:22.088Z,23.30
2019-05-01T06:10:18.545Z,25.03
2019-05-01T06:13:11.952Z,26.00
2019-05-01T06:15:51.348Z,24.57
2019-05-01T06:18:39.411Z,26.97
2019-05-01T06:21:22.071Z,28.20
2019-05-01T06:24:00.709Z,28.90
2019-05-01T06:26:39.269Z,27.13
2019-05-01T06:29:07.565Z,28.57
2019-05-01T06:31:37.609Z,30.60
2019-05-01T06:34:07.298Z,28.80
2019-05-01T06:36:37.241Z,31.10
2019-05-01T06:39:11.841Z,30.33
2019-05-01T06:41:43.817Z,32.77
2019-05-01T06:44:44.047Z,34.23
2019-05-01T06:47:23.597Z,32.30
2019-05-01T06:50:10.184Z,29.77
2019-05-01T06:52:40.539Z,30.03
2019-05-01T06:55:10.291Z,31.83
2019-05-01T06:57:43.716Z,30.03
2019-05-01T07:00:17.322Z,31.87
2019-05-01T07:02:49.109Z,34.37
2019-05-01T07:05:21.352Z,31.80
2019-05-01T07:07:55.015Z,33.43
2019-05-01T07:10:31.510Z,31.73
2019-05-01T07:13:05.006Z,30.03
2019-05-01T07:15:33.042Z,33.07
2019-05-01T07:18:03.219Z,33.93
2019-05-01T07:20:58.372Z,33.33
2019-05-01T07:23:27.965Z,34.87
2019-05-01T07:25:57.623Z,34.90
2019-05-01T07:28:34.048Z,35.50
2019-05-01T07:31:12.708Z,34.93
2019-05-01T07:33:47.187Z,33.60
2019-05-01T07:36:16.555Z,35.40
2019-05-01T07:38:46.852Z,34.87
2019-05-01T07:41:16.516Z,35.23
2019-05-01T07:44:05.363Z,35.00
2019-05-01T07:46:54.012Z,34.00
2019-05-01T07:49:52.860Z,34.23
2019-05-01T07:52:21.651Z,35.93
2019-05-01T07:54:51.638Z,36.00
2019-05-01T07:57:23.037Z,38.20
2019-05-01T07:59:53.113Z,37.47
2019-05-01T08:02:25.930Z,38.87
2019-05-01T08:04:54.165Z,40.63
2019-05-01T08:07:27.894Z,38.67
2019-05-01T08:09:55.183Z,40.63
2019-05-01T08:12:25.911Z,30.00
2019-05-01T08:14:55.605Z,38.43
2019-05-01T08:17:26.808Z,36.97
2019-05-01T08:20:09.789Z,36.57
2019-05-01T08:22:39.182Z,36.67
2019-05-01T08:25:09.084Z,33.97
2019-05-01T08:27:51.061Z,34.93
2019-05-01T08:30:31.022Z,34.90
2019-05-01T08:33:16.013Z,34.93
2019-05-01T08:35:45.714Z,33.73
2019-05-01T08:38:15.272Z,33.60
2019-05-01T08:40:44.932Z,33.73
2019-05-01T08:43:18.177Z,36.30
2019-05-01T08:46:01.298Z,36.40
2019-05-01T08:48:36.036Z,33.50
2019-05-01T08:51:06.610Z,32.53
2019-05-01T08:53:36.244Z,32.97
2019-05-01T08:56:05.953Z,34.60
2019-05-01T08:58:35.532Z,31.47
2019-05-01T09:01:06.013Z,29.83
2019-05-01T09:03:35.545Z,33.37
2019-05-01T09:06:05.136Z,30.23
2019-05-01T09:08:34.723Z,29.43
2019-05-01T09:11:04.496Z,29.43
2019-05-01T09:13:34.039Z,26.90
2019-05-01T09:16:03.700Z,28.40
2019-05-01T09:18:33.364Z,29.43
2019-05-01T09:21:02.953Z,30.13
2019-05-01T09:23:34.402Z,31.27
2019-05-01T09:26:26.231Z,28.27
2019-05-01T09:29:00.732Z,27.67
2019-05-01T09:31:33.861Z,27.60
2019-05-01T09:34:02.944Z,27.93
2019-05-01T09:36:32.553Z,26.00
2019-05-01T09:39:02.362Z,27.20
2019-05-01T09:41:38.434Z,25.63
2019-05-01T09:44:05.819Z,26.03
2019-05-01T09:46:35.481Z,25.87
2019-05-01T09:49:05.375Z,25.43
2019-05-01T09:51:49.318Z,25.27
2019-05-01T09:54:37.009Z,24.67
2019-05-01T09:57:06.666Z,24.47
2019-05-01T09:59:36.238Z,25.03
2019-05-01T10:02:07.825Z,22.37
2019-05-01T10:04:37.672Z,24.17
2019-05-01T10:07:08.924Z,23.80
2019-05-01T10:09:38.558Z,22.40
2019-05-01T10:12:11.605Z,22.73
2019-05-01T10:14:39.653Z,23.97
2019-05-01T10:17:09.214Z,23.27
2019-05-01T10:19:38.766Z,22.60
2019-05-01T10:22:08.377Z,21.67
2019-05-01T10:24:39.353Z,19.93
2019-05-01T10:27:11.783Z,20.37
2019-05-01T10:29:57.020Z,19.63
2019-05-01T10:32:33.648Z,20.97
2019-05-01T10:35:23.316Z,19.67
2019-05-01T10:37:52.901Z,18.33
2019-05-01T10:40:22.587Z,18.97
2019-05-01T10:45:35.889Z,17.47
2019-05-01T10:48:06.573Z,19.57
2019-05-01T10:50:36.096Z,20.37
2019-05-01T10:53:05.783Z,22.13
2019-05-01T10:55:35.323Z,23.93
2019-05-01T10:58:05.048Z,25.00
2019-05-01T11:00:36.252Z,24.73
2019-05-01T11:03:05.806Z,25.13
2019-05-01T11:05:35.343Z,24.73
2019-05-01T11:08:05.572Z,22.57
2019-05-01T11:10:35.140Z,23.60
2019-05-01T11:13:07.650Z,22.43
2019-05-01T11:15:36.025Z,22.90
2019-05-01T11:18:05.682Z,24.70
2019-05-01T11:20:35.240Z,22.70
2019-05-01T11:23:04.810Z,17.73
2019-05-01T11:25:34.436Z,21.60
2019-05-01T11:28:04.205Z,23.73
2019-05-01T11:30:34.885Z,20.80
2019-05-01T11:33:16.684Z,20.33
2019-05-01T11:36:09.512Z,22.23
2019-05-01T11:38:53.520Z,21.43
2019-05-01T11:41:31.028Z,22.10
2019-05-01T11:44:00.605Z,20.80
2019-05-01T11:46:30.161Z,22.23
2019-05-01T11:48:59.745Z,25.43
2019-05-01T11:51:29.292Z,23.10
2019-05-01T11:53:58.885Z,21.87
2019-05-01T11:56:28.473Z,24.07
2019-05-01T11:58:58.085Z,20.33
2019-05-01T12:01:27.619Z,19.70
2019-05-01T12:03:57.153Z,23.03
2019-05-01T12:06:26.815Z,20.33
2019-05-01T12:08:56.374Z,21.93
2019-05-01T12:11:27.707Z,20.43
2019-05-01T12:13:57.245Z,19.80
2019-05-01T12:16:44.709Z,19.03
2019-05-01T12:19:14.260Z,18.87
2019-05-01T12:21:43.818Z,20.17
2019-05-01T12:24:13.421Z,18.13
2019-05-01T12:26:42.990Z,17.67
2019-05-01T12:29:12.548Z,18.50
2019-05-01T12:31:42.165Z,15.93
2019-05-01T12:34:11.702Z,15.80
2019-05-01T12:36:42.310Z,17.33
2019-05-01T12:39:14.670Z,18.47
2019-05-01T12:41:57.592Z,15.63
2019-05-01T12:44:27.151Z,14.50
2019-05-01T12:47:03.419Z,15.17
2019-05-01T12:49:33.036Z,14.33
2019-05-01T12:52:10.624Z,13.53
2019-05-01T12:55:00.602Z,12.67
2019-05-01T12:57:30.167Z,12.50
2019-05-01T13:00:08.486Z,13.43
2019-05-01T13:02:31.252Z,13.57
2019-05-01T13:05:00.850Z,12.57
2019-05-01T13:07:30.517Z,13.13
2019-05-01T13:10:00.163Z,11.37
2019-05-01T13:12:29.696Z,12.70
2019-05-01T13:14:59.265Z,12.80
2019-05-01T13:17:28.793Z,11.30
2019-05-01T13:19:58.358Z,12.43
2019-05-01T13:22:27.934Z,13.03
2019-05-01T13:24:57.502Z,12.77
2019-05-01T13:27:33.636Z,12.23
2019-05-01T13:30:16.292Z,11.33
2019-05-01T13:32:47.438Z,11.27
2019-05-01T13:35:17.047Z,10.90
2019-05-01T13:37:46.600Z,9.93
2019-05-01T13:40:16.645Z,11.13
2019-05-01T13:42:46.175Z,10.10
2019-05-01T13:45:16.097Z,10.80
2019-05-01T13:47:45.700Z,9.87
2019-05-01T13:50:15.512Z,9.70
2019-05-01T13:52:45.153Z,9.70
2019-05-01T13:55:15.591Z,7.93
2019-05-01T13:57:45.216Z,8.83
2019-05-01T14:00:15.870Z,7.53
2019-05-01T14:02:46.367Z,8.00
2019-05-01T14:05:16.205Z,7.83
2019-05-01T14:07:45.736Z,7.20
2019-05-01T14:10:15.527Z,6.63
2019-05-01T14:12:45.076Z,7.27
2019-05-01T14:15:14.771Z,6.53
2019-05-01T14:17:44.341Z,7.00
2019-05-01T14:20:30.261Z,7.40
2019-05-01T14:23:04.481Z,6.10
2019-05-01T14:25:51.823Z,5.80
2019-05-01T14:28:21.421Z,6.00
2019-05-01T14:30:51.042Z,5.73
2019-05-01T14:33:20.592Z,6.13
2019-05-01T14:35:50.127Z,6.13
2019-05-01T14:38:19.655Z,6.07
2019-05-01T14:40:49.265Z,5.70
2019-05-01T14:43:18.862Z,5.70
2019-05-01T14:45:48.455Z,5.80
2019-05-01T14:48:18.135Z,5.63
2019-05-01T14:50:47.730Z,4.87
2019-05-01T14:53:17.252Z,5.63
2019-05-01T14:55:46.822Z,4.40
2019-05-01T14:58:16.388Z,4.87
2019-05-01T15:00:45.927Z,5.53
2019-05-01T15:03:15.596Z,5.70
2019-05-01T15:05:45.188Z,5.50
2019-05-01T15:08:14.761Z,5.80
2019-05-01T15:10:44.279Z,4.67
2019-05-01T15:13:24.876Z,4.80
2019-05-01T15:16:01.012Z,4.77
2019-05-01T15:18:44.123Z,4.60
2019-05-01T15:21:13.639Z,4.10
2019-05-01T15:23:53.120Z,4.60
2019-05-01T15:26:14.424Z,4.80
2019-05-01T15:28:45.064Z,4.20
2019-05-01T15:31:14.660Z,4.50
2019-05-01T15:33:44.204Z,3.93
2019-05-01T15:36:13.763Z,4.13
2019-05-01T15:38:43.312Z,3.73
2019-05-01T15:41:28.580Z,3.67
2019-05-01T15:44:17.268Z,2.87
2019-05-01T15:46:47.051Z,3.30
2019-05-01T15:49:16.588Z,3.90
2019-05-01T15:51:46.209Z,3.30
2019-05-01T15:54:15.773Z,3.33
2019-05-01T15:56:45.299Z,2.77
2019-05-01T15:59:14.835Z,3.07
2019-05-01T16:01:44.392Z,3.67
2019-05-01T16:04:13.946Z,3.23
2019-05-01T16:06:43.476Z,3.43
2019-05-01T16:09:13.070Z,3.17
2019-05-01T16:12:10.972Z,3.37
2019-05-01T16:14:46.232Z,2.97
2019-05-01T16:17:15.833Z,3.23
2019-05-01T16:19:45.508Z,3.07
2019-05-01T16:22:15.015Z,3.23
2019-05-01T16:24:44.595Z,2.23
2019-05-01T16:27:14.225Z,2.43
2019-05-01T16:29:43.755Z,2.30
2019-05-01T16:32:13.393Z,2.00
2019-05-01T16:34:42.939Z,2.23
2019-05-01T16:37:12.550Z,2.00
2019-05-01T16:40:01.193Z,2.50
2019-05-01T16:42:38.892Z,2.07
2019-05-01T16:45:08.911Z,2.30
2019-05-01T16:47:38.427Z,2.20
2019-05-01T16:50:08.721Z,2.07
2019-05-01T16:52:39.520Z,1.80
2019-05-01T16:55:09.835Z,2.23
2019-05-01T16:57:39.384Z,2.10
2019-05-01T17:00:11.517Z,2.00
2019-05-01T17:02:56.874Z,2.10
2019-05-01T17:05:45.638Z,1.67
2019-05-01T17:08:35.667Z,2.10
2019-05-01T17:10:57.116Z,2.10
2019-05-01T17:13:26.637Z,1.93
2019-05-01T17:15:56.258Z,2.10
2019-05-01T17:18:25.830Z,2.07
2019-05-01T17:20:55.398Z,2.40
2019-05-01T17:23:25.004Z,2.47
2019-05-01T17:25:54.557Z,2.70
2019-05-01T17:28:24.194Z,2.53
2019-05-01T17:31:01.154Z,2.17
2019-05-01T17:33:30.919Z,2.27
2019-05-01T17:36:00.505Z,2.13
2019-05-01T17:38:30.089Z,2.40
2019-05-01T17:40:59.637Z,2.60
2019-05-01T17:43:29.244Z,3.43
2019-05-01T17:45:58.824Z,2.93
2019-05-01T17:48:28.746Z,2.97
2019-05-01T17:51:00.451Z,4.20
2019-05-01T17:53:31.060Z,5.00
2019-05-01T17:56:00.620Z,4.60
2019-05-01T17:58:31.285Z,4.27
2019-05-01T18:01:14.665Z,3.83
2019-05-01T18:03:56.714Z,4.50
2019-05-01T18:06:31.816Z,3.70
2019-05-01T18:09:03.139Z,3.80
2019-05-01T18:11:34.083Z,3.90
2019-05-01T18:14:05.634Z,3.90
2019-05-01T18:16:35.133Z,4.27
2019-05-01T18:19:04.935Z,4.90
2019-05-01T18:21:34.678Z,4.13
2019-05-01T18:24:23.230Z,5.10
2019-05-01T18:27:14.751Z,4.50
2019-05-01T18:29:54.252Z,4.83
2019-05-01T18:32:41.737Z,4.83
2019-05-01T18:35:14.159Z,4.40
2019-05-01T18:37:52.201Z,4.80
2019-05-01T18:40:48.067Z,4.27
2019-05-01T18:43:18.612Z,4.20
2019-05-01T18:45:56.485Z,4.77
2019-05-01T18:48:26.205Z,4.53
2019-05-01T18:50:56.358Z,3.83
2019-05-01T18:53:26.131Z,4.03
2019-05-01T18:55:55.781Z,4.50
2019-05-01T18:58:25.422Z,4.40
2019-05-01T19:00:55.253Z,3.90
2019-05-01T19:03:24.866Z,4.60
2019-05-01T19:05:54.481Z,4.23
2019-05-01T19:08:24.152Z,4.60
2019-05-01T19:10:53.756Z,4.40
2019-05-01T19:13:23.480Z,5.00
2019-05-01T19:15:53.086Z,4.30
2019-05-01T19:18:22.859Z,4.80
2019-05-01T19:20:59.416Z,4.47
2019-05-01T19:23:28.051Z,4.70
2019-05-01T19:25:56.422Z,4.43
2019-05-01T19:28:26.633Z,4.87
2019-05-01T19:30:56.819Z,4.27
2019-05-01T19:33:26.528Z,4.30
2019-05-01T19:35:56.200Z,4.57
2019-05-01T19:38:29.569Z,5.33
2019-05-01T19:40:57.169Z,4.83
2019-05-01T19:43:26.701Z,4.10
2019-05-01T19:45:56.635Z,4.30
2019-05-01T19:48:26.364Z,4.07
2019-05-01T19:50:55.929Z,4.50
2019-05-01T19:53:25.533Z,4.33
2019-05-01T19:55:55.156Z,4.87
2019-05-01T19:58:24.727Z,4.83
2019-05-01T20:01:03.983Z,3.93
2019-05-01T20:03:36.035Z,4.50
2019-05-01T20:06:06.106Z,4.67
2019-05-01T20:08:36.139Z,4.63
2019-05-01T20:11:05.747Z,4.80
2019-05-01T20:13:35.493Z,4.30
2019-05-01T20:16:07.623Z,4.30
2019-05-01T20:18:37.206Z,4.63
2019-05-01T20:21:06.859Z,4.47
2019-05-01T20:23:36.475Z,5.07
2019-05-01T20:26:06.044Z,4.77
2019-05-01T20:28:37.412Z,4.73
2019-05-01T20:31:06.817Z,5.13
2019-05-01T20:33:38.907Z,4.63
2019-05-01T20:36:07.585Z,4.90
2019-05-01T20:38:37.124Z,5.03
2019-05-01T20:41:10.432Z,4.67
2019-05-01T20:43:42.867Z,4.90
2019-05-01T20:46:09.303Z,4.67
2019-05-01T20:48:38.870Z,5.30
2019-05-01T20:51:08.493Z,4.70
2019-05-01T20:53:38.027Z,5.10
2019-05-01T20:56:18.123Z,4.90
2019-05-01T20:58:47.665Z,5.00
2019-05-01T21:01:17.282Z,5.47
2019-05-01T21:03:57.287Z,4.97
2019-05-01T21:06:28.530Z,5.67
2019-05-01T21:09:02.459Z,5.63
2019-05-01T21:11:37.058Z,5.37
2019-05-01T21:14:19.708Z,5.47
2019-05-01T21:16:39.675Z,5.03
2019-05-01T21:19:09.189Z,5.40
2019-05-01T21:21:38.756Z,5.50
2019-05-01T21:24:08.327Z,5.47
2019-05-01T21:26:37.889Z,5.33
2019-05-01T21:29:07.481Z,5.17
2019-05-01T21:31:37.022Z,4.77
2019-05-01T21:34:06.623Z,5.53
2019-05-01T21:36:36.196Z,5.20
2019-05-01T21:39:06.208Z,5.57
2019-05-01T21:41:36.242Z,5.50
2019-05-01T21:44:06.796Z,5.80
2019-05-01T21:46:39.104Z,6.53
2019-05-01T21:49:07.716Z,5.53
2019-05-01T21:51:42.323Z,6.50
2019-05-01T21:54:08.600Z,6.67
2019-05-01T21:56:41.458Z,7.03
2019-05-01T21:59:09.400Z,7.17
2019-05-01T22:01:39.053Z,6.77
2019-05-01T22:04:08.691Z,7.13
2019-05-01T22:06:38.397Z,7.63
2019-05-01T22:09:15.163Z,6.77
2019-05-01T22:11:45.432Z,7.83
2019-05-01T22:14:23.606Z,7.20
2019-05-01T22:16:56.591Z,7.80
2019-05-01T22:19:25.874Z,8.30
2019-05-01T22:22:20.846Z,8.10
2019-05-01T22:24:58.656Z,7.97
2019-05-01T22:27:35.007Z,9.27
2019-05-01T22:30:19.991Z,9.63
2019-05-01T22:32:51.696Z,9.13
2019-05-01T22:35:23.749Z,9.30
2019-05-01T22:37:53.347Z,9.53
2019-05-01T22:40:35.723Z,9.23
2019-05-01T22:43:05.372Z,10.33
2019-05-01T22:45:34.999Z,11.20
2019-05-01T22:48:04.576Z,12.00
2019-05-01T22:50:34.112Z,11.77
2019-05-01T22:53:08.042Z,13.43
2019-05-01T22:55:34.989Z,12.70
2019-05-01T22:58:04.590Z,12.37
2019-05-01T23:00:50.765Z,12.53
2019-05-01T23:03:24.772Z,12.30
2019-05-01T23:05:54.413Z,12.80
2019-05-01T23:08:24.320Z,12.60
2019-05-01T23:10:53.838Z,11.97
2019-05-01T23:13:24.360Z,12.57
2019-05-01T23:15:56.220Z,13.20
2019-05-01T23:18:25.253Z,13.20
2019-05-01T23:20:54.820Z,13.27
2019-05-01T23:23:24.520Z,12.53
2019-05-01T23:25:57.100Z,13.23
2019-05-01T23:28:26.667Z,13.17
2019-05-01T23:30:56.296Z,13.13
2019-05-01T23:33:25.938Z,12.47
2019-05-01T23:35:55.521Z,14.37
2019-05-01T23:38:25.112Z,14.70
2019-05-01T23:40:54.782Z,13.17
2019-05-01T23:43:27.799Z,13.87
2019-05-01T23:45:55.656Z,13.93
2019-05-01T23:48:25.192Z,14.87
2019-05-01T23:50:54.768Z,14.17
2019-05-01T23:53:24.333Z,13.37
2019-05-01T23:55:54.691Z,15.50
2019-05-01T23:58:25.173Z,15.57
